createdAt,value
2018-08-18T00:00:44.784Z,0.00
2018-08-18T00:01:44.961Z,0.00
2018-08-18T00:02:45.141Z,0.00
2018-08-18T00:03:45.316Z,0.00
2018-08-18T00:04:45.510Z,0.00
2018-08-18T00:05:45.675Z,0.00
2018-08-18T00:06:45.854Z,0.00
2018-08-18T00:07:46.037Z,0.00
2018-08-18T00:08:46.234Z,0.00
2018-08-18T00:09:46.400Z,0.00
2018-08-18T00:10:46.590Z,0.00
2018-08-18T00:11:46.778Z,0.00
2018-08-18T00:12:46.952Z,0.00
2018-08-18T00:13:47.148Z,0.00
2018-08-18T00:14:47.343Z,0.00
2018-08-18T00:15:47.526Z,0.00
2018-08-18T00:16:47.702Z,0.00
2018-08-18T00:17:47.891Z,0.00
2018-08-18T00:18:48.313Z,0.00
2018-08-18T00:19:48.233Z,0.00
2018-08-18T00:20:48.419Z,0.00
2018-08-18T00:21:48.578Z,0.00
2018-08-18T00:22:48.756Z,0.00
2018-08-18T00:23:48.918Z,0.00
2018-08-18T00:24:49.087Z,0.00
2018-08-18T00:25:49.279Z,0.00
2018-08-18T00:26:49.466Z,0.00
2018-08-18T00:27:49.693Z,0.00
2018-08-18T00:28:49.830Z,0.00
2018-08-18T00:29:50.007Z,0.00
2018-08-18T00:30:50.193Z,0.00
2018-08-18T00:31:50.376Z,0.00
2018-08-18T00:32:50.564Z,0.00
2018-08-18T00:33:50.728Z,0.00
2018-08-18T00:34:50.901Z,0.00
2018-08-18T00:35:51.072Z,0.00
2018-08-18T00:36:51.254Z,0.00
2018-08-18T00:37:51.436Z,0.00
2018-08-18T00:38:51.617Z,0.00
2018-08-18T00:39:51.786Z,0.00
2018-08-18T00:40:51.968Z,0.00
2018-08-18T00:41:52.151Z,0.00
2018-08-18T00:42:52.332Z,0.00
2018-08-18T00:43:52.513Z,0.00
2018-08-18T00:44:52.690Z,0.00
2018-08-18T00:45:52.861Z,0.00
2018-08-18T00:46:53.031Z,0.00
2018-08-18T00:47:53.216Z,0.00
2018-08-18T00:48:53.391Z,0.00
2018-08-18T00:49:53.572Z,0.00
2018-08-18T00:50:53.746Z,0.00
2018-08-18T00:51:53.946Z,0.00
2018-08-18T00:52:54.126Z,0.00
2018-08-18T00:53:54.314Z,0.00
2018-08-18T00:54:54.492Z,0.00
2018-08-18T00:55:54.672Z,0.00
2018-08-18T00:56:54.855Z,0.00
2018-08-18T00:57:55.038Z,0.00
2018-08-18T00:58:55.262Z,0.00
2018-08-18T00:59:55.405Z,0.00
2018-08-18T01:00:55.594Z,0.00
2018-08-18T01:01:55.770Z,0.00
2018-08-18T01:02:56.193Z,0.00
2018-08-18T01:03:56.133Z,0.00
2018-08-18T01:04:56.326Z,0.00
2018-08-18T01:05:56.505Z,0.00
2018-08-18T01:06:56.681Z,0.00
2018-08-18T01:07:56.867Z,0.00
2018-08-18T01:08:57.044Z,0.00
2018-08-18T01:09:57.222Z,0.00
2018-08-18T01:10:57.454Z,0.00
2018-08-18T01:11:57.617Z,0.00
2018-08-18T01:12:57.948Z,0.00
2018-08-18T01:13:58.053Z,0.00
2018-08-18T01:14:58.330Z,0.00
2018-08-18T01:15:58.329Z,0.00
2018-08-18T01:16:58.513Z,0.00
2018-08-18T01:17:58.697Z,0.00
2018-08-18T01:18:58.887Z,0.00
2018-08-18T01:19:59.055Z,0.00
2018-08-18T01:20:59.238Z,0.00
2018-08-18T01:21:59.424Z,0.00
2018-08-18T01:22:59.610Z,0.00
2018-08-18T01:23:59.813Z,0.00
2018-08-18T01:24:59.986Z,0.00
2018-08-18T01:27:00.413Z,0.00
2018-08-18T01:28:00.540Z,0.00
2018-08-18T01:29:00.707Z,0.00
2018-08-18T01:30:00.911Z,0.00
2018-08-18T01:31:01.077Z,0.00
2018-08-18T01:32:01.259Z,0.00
2018-08-18T01:33:01.435Z,0.00
2018-08-18T01:34:01.625Z,0.00
2018-08-18T01:35:01.813Z,0.00
2018-08-18T01:36:01.994Z,0.00
2018-08-18T01:37:02.177Z,0.00
2018-08-18T01:38:02.347Z,0.00
2018-08-18T01:39:02.569Z,0.00
2018-08-18T01:40:02.722Z,0.00
2018-08-18T01:41:02.923Z,0.00
2018-08-18T01:42:03.095Z,0.00
2018-08-18T01:43:03.280Z,0.00
2018-08-18T01:44:03.458Z,0.00
2018-08-18T01:45:03.649Z,0.00
2018-08-18T01:46:03.834Z,0.00
2018-08-18T01:47:04.018Z,0.00
2018-08-18T01:48:04.202Z,0.00
2018-08-18T01:49:04.377Z,0.00
2018-08-18T01:50:04.563Z,0.00
2018-08-18T01:51:05.478Z,0.00
2018-08-18T01:52:04.908Z,0.00
2018-08-18T01:53:05.092Z,0.00
2018-08-18T01:54:05.280Z,0.00
2018-08-18T01:55:05.454Z,0.00
2018-08-18T01:56:05.644Z,0.00
2018-08-18T01:57:05.827Z,0.00
2018-08-18T01:58:06.012Z,0.00
2018-08-18T01:59:06.200Z,0.00
2018-08-18T02:00:06.402Z,0.00
2018-08-18T02:01:06.576Z,0.00
2018-08-18T02:02:06.763Z,0.00
2018-08-18T02:03:06.946Z,0.00
2018-08-18T02:04:07.135Z,0.00
2018-08-18T02:05:07.316Z,0.00
2018-08-18T02:06:07.490Z,0.00
2018-08-18T02:07:07.678Z,0.00
2018-08-18T02:08:07.868Z,0.00
2018-08-18T02:09:08.044Z,0.00
2018-08-18T02:10:08.235Z,0.00
2018-08-18T02:11:08.411Z,0.00
2018-08-18T02:12:08.593Z,0.00
2018-08-18T02:13:08.769Z,0.00
2018-08-18T02:14:08.961Z,0.00
2018-08-18T02:15:09.159Z,0.00
2018-08-18T02:16:09.377Z,0.00
2018-08-18T02:17:09.522Z,0.00
2018-08-18T02:18:09.699Z,0.00
2018-08-18T02:19:09.882Z,0.00
2018-08-18T02:20:10.129Z,0.00
2018-08-18T02:21:10.256Z,0.00
2018-08-18T02:22:10.429Z,0.00
2018-08-18T02:23:10.609Z,0.00
2018-08-18T02:24:10.790Z,0.00
2018-08-18T02:25:10.977Z,0.00
2018-08-18T02:26:11.152Z,0.00
2018-08-18T02:27:11.325Z,0.00
2018-08-18T02:28:11.506Z,0.00
2018-08-18T02:29:11.685Z,0.00
2018-08-18T02:30:11.865Z,0.00
2018-08-18T02:31:12.054Z,0.00
2018-08-18T02:32:12.237Z,0.00
2018-08-18T02:33:12.418Z,0.00
2018-08-18T02:34:12.598Z,0.00
2018-08-18T02:35:12.773Z,0.00
2018-08-18T02:36:12.963Z,0.00
2018-08-18T02:37:13.149Z,0.00
2018-08-18T02:38:13.329Z,0.00
2018-08-18T02:39:13.512Z,0.00
2018-08-18T02:40:13.765Z,0.00
2018-08-18T02:41:13.874Z,0.00
2018-08-18T02:42:14.306Z,0.00
2018-08-18T02:43:14.255Z,0.00
2018-08-18T02:44:14.444Z,0.00
2018-08-18T02:45:14.624Z,0.00
2018-08-18T02:46:14.808Z,0.00
2018-08-18T02:47:15.000Z,0.00
2018-08-18T02:48:15.184Z,0.00
2018-08-18T02:49:15.612Z,0.00
2018-08-18T02:50:15.540Z,0.00
2018-08-18T02:51:15.720Z,0.00
2018-08-18T02:52:15.906Z,0.00
2018-08-18T02:53:16.087Z,0.00
2018-08-18T02:54:16.271Z,0.00
2018-08-18T02:55:16.451Z,0.00
2018-08-18T02:56:16.629Z,0.00
2018-08-18T02:57:16.828Z,0.00
2018-08-18T02:58:17.022Z,0.00
2018-08-18T02:59:17.207Z,0.00
2018-08-18T03:00:17.380Z,0.00
2018-08-18T03:01:17.577Z,0.00
2018-08-18T03:02:17.755Z,0.00
2018-08-18T03:03:17.941Z,0.00
2018-08-18T03:04:18.124Z,0.00
2018-08-18T03:05:18.310Z,0.00
2018-08-18T03:06:18.489Z,0.00
2018-08-18T03:07:18.671Z,0.00
2018-08-18T03:08:18.846Z,0.00
2018-08-18T03:09:19.035Z,0.00
2018-08-18T03:10:19.215Z,0.00
2018-08-18T03:11:19.404Z,0.00
2018-08-18T03:12:19.581Z,0.00
2018-08-18T03:13:19.772Z,0.00
2018-08-18T03:14:19.945Z,0.00
2018-08-18T03:15:20.129Z,0.00
2018-08-18T03:16:20.306Z,0.00
2018-08-18T03:17:20.488Z,0.00
2018-08-18T03:18:20.676Z,0.00
2018-08-18T03:19:20.856Z,0.00
2018-08-18T03:20:21.035Z,0.00
2018-08-18T03:21:21.220Z,0.00
2018-08-18T03:22:21.415Z,0.00
2018-08-18T03:23:21.580Z,0.00
2018-08-18T03:24:21.767Z,0.00
2018-08-18T03:25:21.949Z,0.00
2018-08-18T03:26:22.128Z,0.00
2018-08-18T03:27:22.314Z,0.00
2018-08-18T03:28:22.492Z,0.00
2018-08-18T03:29:22.671Z,0.00
2018-08-18T03:30:22.861Z,0.00
2018-08-18T03:31:23.044Z,0.00
2018-08-18T03:32:23.221Z,0.00
2018-08-18T03:33:23.419Z,0.00
2018-08-18T03:34:23.599Z,0.00
2018-08-18T03:35:23.785Z,0.00
2018-08-18T03:36:23.968Z,0.00
2018-08-18T03:37:24.395Z,0.00
2018-08-18T03:38:24.345Z,0.00
2018-08-18T03:39:24.520Z,0.00
2018-08-18T03:40:24.712Z,0.00
2018-08-18T03:41:24.896Z,0.00
2018-08-18T03:42:25.087Z,0.00
2018-08-18T03:43:25.270Z,0.00
2018-08-18T03:44:25.451Z,0.00
2018-08-18T03:45:25.643Z,0.00
2018-08-18T03:46:25.832Z,0.00
2018-08-18T03:47:26.016Z,4.00
2018-08-18T03:48:26.200Z,4.00
2018-08-18T03:49:26.380Z,4.00
2018-08-18T03:50:26.569Z,0.00
2018-08-18T03:51:26.741Z,4.00
2018-08-18T03:52:27.042Z,4.00
2018-08-18T03:53:27.107Z,4.00
2018-08-18T03:54:27.292Z,8.00
2018-08-18T03:55:27.473Z,8.00
2018-08-18T03:56:27.651Z,8.00
2018-08-18T03:57:27.840Z,8.00
2018-08-18T03:58:28.021Z,12.00
2018-08-18T03:59:28.211Z,12.00
2018-08-18T04:00:28.386Z,12.00
2018-08-18T04:01:28.590Z,16.00
2018-08-18T04:02:28.754Z,16.00
2018-08-18T04:03:28.932Z,20.00
2018-08-18T04:04:29.121Z,24.00
2018-08-18T04:05:29.301Z,24.00
2018-08-18T04:06:29.490Z,28.00
2018-08-18T04:07:29.673Z,36.00
2018-08-18T04:08:29.857Z,40.00
2018-08-18T04:09:30.038Z,48.00
2018-08-18T04:10:30.224Z,52.00
2018-08-18T04:11:30.403Z,60.00
2018-08-18T04:12:30.588Z,68.00
2018-08-18T04:13:30.763Z,80.00
2018-08-18T04:14:30.946Z,92.00
2018-08-18T04:15:31.128Z,100.00
2018-08-18T04:16:31.311Z,112.00
2018-08-18T04:17:31.505Z,124.00
2018-08-18T04:18:31.922Z,136.00
2018-08-18T04:19:31.861Z,148.00
2018-08-18T04:20:32.038Z,156.00
2018-08-18T04:21:32.223Z,172.00
2018-08-18T04:22:32.400Z,184.00
2018-08-18T04:23:32.583Z,204.00
2018-08-18T04:24:32.768Z,224.00
2018-08-18T04:25:32.958Z,256.00
2018-08-18T04:26:33.136Z,292.00
2018-08-18T04:27:33.319Z,336.00
2018-08-18T04:28:33.505Z,380.00
2018-08-18T04:29:33.689Z,428.00
2018-08-18T04:30:33.885Z,480.00
2018-08-18T04:31:34.706Z,532.00
2018-08-18T04:32:34.271Z,580.00
2018-08-18T04:33:35.128Z,632.00
2018-08-18T04:34:34.806Z,684.00
2018-08-18T04:35:34.925Z,732.00
2018-08-18T04:36:35.046Z,780.00
2018-08-18T04:37:36.169Z,832.00
2018-08-18T04:38:35.414Z,884.00
2018-08-18T04:39:35.736Z,944.00
2018-08-18T04:40:35.880Z,1004.00
2018-08-18T04:41:36.119Z,1072.00
2018-08-18T04:42:36.181Z,1128.00
2018-08-18T04:43:36.411Z,1168.00
2018-08-18T04:44:36.501Z,1200.00
2018-08-18T04:45:36.675Z,1228.00
2018-08-18T04:46:36.854Z,1260.00
2018-08-18T04:47:37.037Z,1284.00
2018-08-18T04:48:37.221Z,1304.00
2018-08-18T04:49:37.406Z,1332.00
2018-08-18T04:50:37.650Z,1356.00
2018-08-18T04:51:37.768Z,1380.00
2018-08-18T04:52:37.945Z,1404.00
2018-08-18T04:53:38.131Z,1472.00
2018-08-18T04:54:38.308Z,1580.00
2018-08-18T04:55:38.485Z,1708.00
2018-08-18T04:56:38.681Z,1844.00
2018-08-18T04:57:38.855Z,1960.00
2018-08-18T04:58:39.050Z,2060.00
2018-08-18T04:59:39.232Z,2144.00
2018-08-18T05:00:39.417Z,2284.00
2018-08-18T05:01:39.604Z,2464.00
2018-08-18T05:02:39.788Z,2624.00
2018-08-18T05:03:39.974Z,2740.00
2018-08-18T05:04:40.156Z,2796.00
2018-08-18T05:05:40.342Z,2808.00
2018-08-18T05:06:40.526Z,2648.00
2018-08-18T05:07:40.710Z,2676.00
2018-08-18T05:08:40.893Z,2612.00
2018-08-18T05:09:41.072Z,2808.00
2018-08-18T05:10:41.258Z,3308.00
2018-08-18T05:11:41.527Z,3856.00
2018-08-18T05:12:41.638Z,4428.00
2018-08-18T05:13:42.066Z,4704.00
2018-08-18T05:14:42.003Z,4784.00
2018-08-18T05:15:42.183Z,4552.00
2018-08-18T05:16:42.364Z,4412.00
2018-08-18T05:17:42.562Z,4272.00
2018-08-18T05:18:42.733Z,3708.00
2018-08-18T05:19:42.917Z,3168.00
2018-08-18T05:20:43.096Z,2684.00
2018-08-18T05:21:43.278Z,2440.00
2018-08-18T05:22:43.468Z,2376.00
2018-08-18T05:23:43.650Z,2412.00
2018-08-18T05:24:43.825Z,2476.00
2018-08-18T05:25:44.009Z,2500.00
2018-08-18T05:26:44.191Z,2464.00
2018-08-18T05:27:44.376Z,2596.00
2018-08-18T05:28:44.563Z,2692.00
2018-08-18T05:29:44.746Z,2300.00
2018-08-18T05:30:44.929Z,1936.00
2018-08-18T05:31:45.102Z,1744.00
2018-08-18T05:32:45.294Z,1540.00
2018-08-18T05:33:45.476Z,1308.00
2018-08-18T05:34:45.652Z,1108.00
2018-08-18T05:35:45.844Z,984.00
2018-08-18T05:36:46.026Z,908.00
2018-08-18T05:37:46.224Z,860.00
2018-08-18T05:38:46.385Z,828.00
2018-08-18T05:39:46.606Z,816.00
2018-08-18T05:40:47.889Z,832.00
2018-08-18T05:41:46.921Z,852.00
2018-08-18T05:42:47.098Z,892.00
2018-08-18T05:43:47.282Z,928.00
2018-08-18T05:44:47.471Z,960.00
2018-08-18T05:45:47.646Z,984.00
2018-08-18T05:46:47.832Z,996.00
2018-08-18T05:48:48.183Z,1012.00
2018-08-18T05:49:48.371Z,1028.00
2018-08-18T05:50:48.550Z,1060.00
2018-08-18T05:51:48.732Z,1116.00
2018-08-18T05:52:48.916Z,1188.00
2018-08-18T05:53:49.097Z,1280.00
2018-08-18T05:54:49.276Z,1372.00
2018-08-18T05:55:49.458Z,1448.00
2018-08-18T05:56:49.628Z,1472.00
2018-08-18T05:57:49.807Z,1448.00
2018-08-18T05:58:49.986Z,1420.00
2018-08-18T05:59:50.248Z,1420.00
2018-08-18T06:00:50.332Z,1440.00
2018-08-18T06:01:50.530Z,1472.00
2018-08-18T06:02:50.724Z,1520.00
2018-08-18T06:03:50.896Z,1564.00
2018-08-18T06:04:51.078Z,1592.00
2018-08-18T06:05:51.335Z,1620.00
2018-08-18T06:06:51.452Z,1640.00
2018-08-18T06:07:51.623Z,1628.00
2018-08-18T06:08:51.805Z,1596.00
2018-08-18T06:09:52.001Z,1580.00
2018-08-18T06:10:52.182Z,1564.00
2018-08-18T06:11:52.357Z,1540.00
2018-08-18T06:12:52.535Z,1496.00
2018-08-18T06:13:52.731Z,1468.00
2018-08-18T06:14:52.911Z,1424.00
2018-08-18T06:15:53.089Z,1404.00
2018-08-18T06:16:53.266Z,1392.00
2018-08-18T06:17:53.454Z,1380.00
2018-08-18T06:18:53.633Z,1360.00
2018-08-18T06:19:53.829Z,1352.00
2018-08-18T06:20:53.981Z,1364.00
2018-08-18T06:21:54.164Z,1372.00
2018-08-18T06:22:54.358Z,1372.00
2018-08-18T06:23:54.532Z,1388.00
2018-08-18T06:24:54.725Z,1416.00
2018-08-18T06:25:54.904Z,1464.00
2018-08-18T06:26:55.091Z,1516.00
2018-08-18T06:27:55.272Z,1572.00
2018-08-18T06:28:55.771Z,1648.00
2018-08-18T06:29:55.635Z,1736.00
2018-08-18T06:30:55.818Z,1812.00
2018-08-18T06:31:56.007Z,1892.00
2018-08-18T06:32:56.181Z,2036.00
2018-08-18T06:33:56.363Z,2224.00
2018-08-18T06:34:56.638Z,2336.00
2018-08-18T06:35:56.723Z,2332.00
2018-08-18T06:36:56.900Z,2344.00
2018-08-18T06:37:57.093Z,2384.00
2018-08-18T06:38:57.268Z,2496.00
2018-08-18T06:39:57.460Z,2696.00
2018-08-18T06:40:57.710Z,2908.00
2018-08-18T06:41:57.878Z,3152.00
2018-08-18T06:42:58.007Z,3520.00
2018-08-18T06:43:58.179Z,3952.00
2018-08-18T06:44:58.368Z,4188.00
2018-08-18T06:45:58.564Z,4156.00
2018-08-18T06:46:58.751Z,3956.00
2018-08-18T06:47:58.956Z,3704.00
2018-08-18T06:48:59.119Z,3536.00
2018-08-18T06:49:59.308Z,3436.00
2018-08-18T06:50:59.511Z,3416.00
2018-08-18T06:51:59.679Z,3388.00
2018-08-18T06:53:00.094Z,3360.00
2018-08-18T06:54:00.028Z,3348.00
2018-08-18T06:55:00.410Z,3532.00
2018-08-18T06:56:00.397Z,3420.00
2018-08-18T06:57:00.692Z,3528.00
2018-08-18T06:58:00.779Z,3632.00
2018-08-18T06:59:00.982Z,3760.00
2018-08-18T07:00:01.142Z,3944.00
2018-08-18T07:01:01.336Z,4180.00
2018-08-18T07:02:01.528Z,4640.00
2018-08-18T07:03:01.718Z,12152.00
2018-08-18T07:04:01.898Z,5600.00
2018-08-18T07:05:02.067Z,5532.00
2018-08-18T07:06:02.262Z,5668.00
2018-08-18T07:07:02.413Z,5864.00
2018-08-18T07:08:02.591Z,6104.00
2018-08-18T07:09:02.791Z,6964.00
2018-08-18T07:10:02.939Z,5900.00
2018-08-18T07:11:03.130Z,5940.00
2018-08-18T07:12:03.362Z,6032.00
2018-08-18T07:13:03.538Z,6172.00
2018-08-18T07:14:03.719Z,6404.00
2018-08-18T07:15:03.884Z,6668.00
2018-08-18T07:16:04.055Z,6716.00
2018-08-18T07:17:04.260Z,7944.00
2018-08-18T07:18:04.431Z,6832.00
2018-08-18T07:19:04.621Z,6892.00
2018-08-18T07:20:04.803Z,7064.00
2018-08-18T07:21:04.970Z,7296.00
2018-08-18T07:22:05.155Z,8600.00
2018-08-18T07:23:05.334Z,7792.00
2018-08-18T07:24:05.533Z,11124.00
2018-08-18T07:25:05.701Z,9816.00
2018-08-18T07:26:05.884Z,8624.00
2018-08-18T07:27:06.080Z,8524.00
2018-08-18T07:28:06.330Z,8968.00
2018-08-18T07:29:06.739Z,9728.00
2018-08-18T07:30:06.641Z,10248.00
2018-08-18T07:31:06.809Z,10524.00
2018-08-18T07:32:07.061Z,13724.00
2018-08-18T07:33:07.148Z,13776.00
2018-08-18T07:34:07.584Z,21664.00
2018-08-18T07:35:07.593Z,21536.00
2018-08-18T07:36:07.839Z,23072.00
2018-08-18T07:37:07.943Z,22464.00
2018-08-18T07:38:08.100Z,21824.00
2018-08-18T07:39:08.363Z,21120.00
2018-08-18T07:40:08.525Z,21024.00
2018-08-18T07:41:08.718Z,22496.00
2018-08-18T07:42:08.875Z,22560.00
2018-08-18T07:43:09.850Z,23232.00
2018-08-18T07:44:09.262Z,20608.00
2018-08-18T07:45:09.455Z,15408.00
2018-08-18T07:46:09.623Z,14140.00
2018-08-18T07:47:09.877Z,16288.00
2018-08-18T07:48:10.016Z,15424.00
2018-08-18T07:49:10.114Z,17632.00
2018-08-18T07:50:10.298Z,20128.00
2018-08-18T07:51:10.480Z,20512.00
2018-08-18T07:52:10.675Z,20320.00
2018-08-18T07:53:10.891Z,19680.00
2018-08-18T07:54:11.035Z,17056.00
2018-08-18T07:55:11.240Z,15208.00
2018-08-18T07:56:11.417Z,13872.00
2018-08-18T07:57:11.587Z,13052.00
2018-08-18T07:58:12.012Z,12652.00
2018-08-18T07:59:11.934Z,12840.00
2018-08-18T08:00:12.177Z,13176.00
2018-08-18T08:01:12.313Z,13372.00
2018-08-18T08:02:12.470Z,13328.00
2018-08-18T08:03:12.654Z,13208.00
2018-08-18T08:04:12.834Z,13844.00
2018-08-18T08:05:13.079Z,14856.00
2018-08-18T08:06:13.175Z,14644.00
2018-08-18T08:07:13.363Z,13364.00
2018-08-18T08:08:13.543Z,13224.00
2018-08-18T08:09:13.722Z,14264.00
2018-08-18T08:10:13.925Z,14404.00
2018-08-18T08:11:14.064Z,13360.00
2018-08-18T08:12:14.232Z,12072.00
2018-08-18T08:13:14.426Z,11840.00
2018-08-18T08:14:14.617Z,12380.00
2018-08-18T08:15:14.788Z,14460.00
2018-08-18T08:16:14.967Z,14508.00
2018-08-18T08:17:15.167Z,14764.00
2018-08-18T08:18:15.385Z,14540.00
2018-08-18T08:19:15.574Z,14184.00
2018-08-18T08:20:15.735Z,13812.00
2018-08-18T08:21:15.917Z,13520.00
2018-08-18T08:22:16.100Z,13388.00
2018-08-18T08:23:16.288Z,13140.00
2018-08-18T08:24:16.458Z,13052.00
2018-08-18T08:25:16.642Z,13052.00
2018-08-18T08:26:16.837Z,13048.00
2018-08-18T08:27:17.041Z,12880.00
2018-08-18T08:28:17.238Z,12520.00
2018-08-18T08:29:17.418Z,12760.00
2018-08-18T08:30:17.611Z,12780.00
2018-08-18T08:31:17.788Z,12828.00
2018-08-18T08:32:17.986Z,12748.00
2018-08-18T08:33:18.157Z,12764.00
2018-08-18T08:34:18.361Z,12728.00
2018-08-18T08:35:18.542Z,12760.00
2018-08-18T08:36:18.740Z,12680.00
2018-08-18T08:37:18.919Z,12536.00
2018-08-18T08:38:19.101Z,12272.00
2018-08-18T08:39:19.283Z,12096.00
2018-08-18T08:40:19.475Z,12020.00
2018-08-18T08:41:19.694Z,11884.00
2018-08-18T08:42:19.847Z,11908.00
2018-08-18T08:43:20.068Z,11976.00
2018-08-18T08:44:20.235Z,12000.00
2018-08-18T08:45:20.409Z,12028.00
2018-08-18T08:46:20.605Z,12016.00
2018-08-18T08:47:20.779Z,12000.00
2018-08-18T08:48:20.970Z,11988.00
2018-08-18T08:49:21.161Z,12000.00
2018-08-18T08:50:21.339Z,12040.00
2018-08-18T08:51:21.530Z,12112.00
2018-08-18T08:52:21.705Z,12160.00
2018-08-18T08:53:21.895Z,11912.00
2018-08-18T08:54:22.091Z,11500.00
2018-08-18T08:55:22.288Z,11404.00
2018-08-18T08:56:22.468Z,11532.00
2018-08-18T08:57:22.666Z,11340.00
2018-08-18T08:58:22.906Z,11148.00
2018-08-18T08:59:23.152Z,11136.00
2018-08-18T09:00:23.342Z,11220.00
2018-08-18T09:01:23.529Z,11372.00
2018-08-18T09:02:23.702Z,11504.00
2018-08-18T09:03:23.882Z,11500.00
2018-08-18T09:04:24.068Z,11404.00
2018-08-18T09:05:24.257Z,11140.00
2018-08-18T09:06:24.693Z,10980.00
2018-08-18T09:07:24.629Z,11020.00
2018-08-18T09:08:24.826Z,11080.00
2018-08-18T09:09:25.031Z,11196.00
2018-08-18T09:10:25.317Z,11308.00
2018-08-18T09:11:25.393Z,11292.00
2018-08-18T09:12:25.582Z,11248.00
2018-08-18T09:13:25.768Z,11172.00
2018-08-18T09:14:25.968Z,11212.00
2018-08-18T09:15:26.136Z,11148.00
2018-08-18T09:16:26.315Z,11140.00
2018-08-18T09:17:26.493Z,11108.00
2018-08-18T09:18:26.672Z,11228.00
2018-08-18T09:19:26.829Z,11264.00
2018-08-18T09:20:27.060Z,11296.00
2018-08-18T09:21:27.256Z,11380.00
2018-08-18T09:22:27.438Z,11540.00
2018-08-18T09:23:27.631Z,11448.00
2018-08-18T09:24:27.824Z,11328.00
2018-08-18T09:25:28.021Z,11192.00
2018-08-18T09:26:28.260Z,11084.00
2018-08-18T09:27:28.385Z,11240.00
2018-08-18T09:28:28.560Z,11248.00
2018-08-18T09:29:28.756Z,9280.00
2018-08-18T09:30:28.922Z,10140.00
2018-08-18T09:31:29.097Z,10804.00
2018-08-18T09:32:29.308Z,8680.00
2018-08-18T09:33:29.459Z,7256.00
2018-08-18T09:34:29.638Z,6592.00
2018-08-18T09:35:29.808Z,6828.00
2018-08-18T09:36:29.996Z,6620.00
2018-08-18T09:37:30.171Z,6584.00
2018-08-18T09:38:30.364Z,6464.00
2018-08-18T09:39:30.524Z,6264.00
2018-08-18T09:40:30.722Z,6072.00
2018-08-18T09:41:30.912Z,5900.00
2018-08-18T09:42:31.097Z,5784.00
2018-08-18T09:43:31.305Z,5860.00
2018-08-18T09:44:31.483Z,6176.00
2018-08-18T09:45:31.740Z,5952.00
2018-08-18T09:46:31.853Z,5860.00
2018-08-18T09:47:32.043Z,5960.00
2018-08-18T09:48:32.228Z,5936.00
2018-08-18T09:49:32.409Z,6000.00
2018-08-18T09:50:32.596Z,5972.00
2018-08-18T09:51:32.784Z,5968.00
2018-08-18T09:52:32.977Z,6016.00
2018-08-18T09:53:33.159Z,6108.00
2018-08-18T09:54:33.351Z,6304.00
2018-08-18T09:55:33.528Z,6360.00
2018-08-18T09:56:33.709Z,8156.00
2018-08-18T09:57:33.898Z,11936.00
2018-08-18T09:58:34.103Z,12160.00
2018-08-18T09:59:34.277Z,12272.00
2018-08-18T10:00:34.475Z,12028.00
2018-08-18T10:01:34.658Z,11696.00
2018-08-18T10:02:34.853Z,11304.00
2018-08-18T10:03:35.021Z,11568.00
2018-08-18T10:04:35.202Z,10720.00
2018-08-18T10:05:35.390Z,11980.00
2018-08-18T10:06:35.590Z,11556.00
2018-08-18T10:07:35.770Z,12116.00
2018-08-18T10:08:35.955Z,10236.00
2018-08-18T10:09:36.141Z,9296.00
2018-08-18T10:10:36.323Z,6812.00
2018-08-18T10:11:36.571Z,6196.00
2018-08-18T10:12:36.723Z,5992.00
2018-08-18T10:13:36.902Z,5768.00
2018-08-18T10:14:37.126Z,10076.00
2018-08-18T10:15:37.291Z,7696.00
2018-08-18T10:16:37.510Z,6672.00
2018-08-18T10:17:37.658Z,10196.00
2018-08-18T10:18:37.863Z,11140.00
2018-08-18T10:19:38.042Z,10832.00
2018-08-18T10:20:38.231Z,8780.00
2018-08-18T10:21:38.410Z,6424.00
2018-08-18T10:22:38.608Z,8736.00
2018-08-18T10:23:38.789Z,6436.00
2018-08-18T10:24:38.974Z,5560.00
2018-08-18T10:25:39.140Z,5484.00
2018-08-18T10:26:39.362Z,6000.00
2018-08-18T10:27:39.531Z,7548.00
2018-08-18T10:28:39.694Z,5520.00
2018-08-18T10:29:40.761Z,5320.00
2018-08-18T10:30:40.041Z,5104.00
2018-08-18T10:31:40.218Z,4960.00
2018-08-18T10:32:40.408Z,4916.00
2018-08-18T10:33:40.660Z,5040.00
2018-08-18T10:34:40.828Z,5096.00
2018-08-18T10:35:41.026Z,5024.00
2018-08-18T10:36:41.212Z,5096.00
2018-08-18T10:37:41.398Z,5264.00
2018-08-18T10:38:41.602Z,8544.00
2018-08-18T10:39:41.794Z,6832.00
2018-08-18T10:40:41.989Z,7032.00
2018-08-18T10:41:42.166Z,6276.00
2018-08-18T10:42:42.391Z,6816.00
2018-08-18T10:43:42.605Z,8848.00
2018-08-18T10:44:42.763Z,8172.00
2018-08-18T10:45:42.962Z,9112.00
2018-08-18T10:46:43.101Z,8924.00
2018-08-18T10:47:43.349Z,8880.00
2018-08-18T10:48:43.447Z,8672.00
2018-08-18T10:49:43.626Z,8536.00
2018-08-18T10:50:43.818Z,8332.00
2018-08-18T10:51:44.060Z,8124.00
2018-08-18T10:52:44.195Z,7864.00
2018-08-18T10:53:44.389Z,7588.00
2018-08-18T10:54:44.568Z,7428.00
2018-08-18T10:55:44.753Z,7308.00
2018-08-18T10:56:44.985Z,7224.00
2018-08-18T10:57:45.183Z,7160.00
2018-08-18T10:58:45.379Z,7180.00
2018-08-18T10:59:45.552Z,7200.00
2018-08-18T11:00:45.717Z,7184.00
2018-08-18T11:01:45.987Z,7096.00
2018-08-18T11:02:46.083Z,7044.00
2018-08-18T11:03:46.330Z,7032.00
2018-08-18T11:04:46.453Z,7012.00
2018-08-18T11:05:46.647Z,6900.00
2018-08-18T11:06:46.846Z,6776.00
2018-08-18T11:07:47.031Z,6692.00
2018-08-18T11:08:47.218Z,6728.00
2018-08-18T11:09:47.393Z,6784.00
2018-08-18T11:10:47.584Z,6868.00
2018-08-18T11:11:47.857Z,6960.00
2018-08-18T11:12:48.210Z,6128.00
2018-08-18T11:13:48.162Z,7012.00
2018-08-18T11:14:48.331Z,7072.00
2018-08-18T11:15:48.513Z,7160.00
2018-08-18T11:16:48.697Z,6804.00
2018-08-18T11:17:48.868Z,7068.00
2018-08-18T11:18:49.060Z,7040.00
2018-08-18T11:19:49.236Z,7100.00
2018-08-18T11:20:49.397Z,7148.00
2018-08-18T11:21:49.631Z,7076.00
2018-08-18T11:22:49.784Z,6984.00
2018-08-18T11:23:49.950Z,7024.00
2018-08-18T11:24:50.152Z,6956.00
2018-08-18T11:25:50.323Z,6908.00
2018-08-18T11:26:50.505Z,6336.00
2018-08-18T11:27:50.693Z,6524.00
2018-08-18T11:28:51.138Z,4744.00
2018-08-18T11:29:51.105Z,4424.00
2018-08-18T11:30:51.253Z,5008.00
2018-08-18T11:31:51.421Z,6848.00
2018-08-18T11:32:51.619Z,6896.00
2018-08-18T11:33:51.802Z,6196.00
2018-08-18T11:34:51.966Z,6064.00
2018-08-18T11:35:52.146Z,5232.00
2018-08-18T11:36:52.316Z,6524.00
2018-08-18T11:37:52.490Z,6688.00
2018-08-18T11:38:52.664Z,6612.00
2018-08-18T11:39:52.828Z,5732.00
2018-08-18T11:40:52.994Z,5096.00
2018-08-18T11:41:53.199Z,4464.00
2018-08-18T11:42:53.442Z,4060.00
2018-08-18T11:43:53.555Z,5852.00
2018-08-18T11:44:53.730Z,6380.00
2018-08-18T11:45:53.943Z,6388.00
2018-08-18T11:46:54.173Z,6300.00
2018-08-18T11:47:54.291Z,6184.00
2018-08-18T11:48:54.465Z,6176.00
2018-08-18T11:49:54.649Z,6136.00
2018-08-18T11:50:54.839Z,6068.00
2018-08-18T11:51:55.011Z,5976.00
2018-08-18T11:52:55.185Z,5912.00
2018-08-18T11:53:55.374Z,5888.00
2018-08-18T11:54:55.556Z,5844.00
2018-08-18T11:55:55.738Z,5820.00
2018-08-18T11:57:56.099Z,5784.00
2018-08-18T11:58:56.319Z,5808.00
2018-08-18T11:59:56.502Z,5752.00
2018-08-18T12:00:56.752Z,5740.00
2018-08-18T12:01:56.917Z,5728.00
2018-08-18T12:02:57.068Z,5664.00
2018-08-18T12:03:57.296Z,5724.00
2018-08-18T12:04:57.594Z,5888.00
2018-08-18T12:05:57.656Z,5820.00
2018-08-18T12:06:57.831Z,5836.00
2018-08-18T12:07:58.011Z,5852.00
2018-08-18T12:08:58.242Z,5836.00
2018-08-18T12:09:58.470Z,5860.00
2018-08-18T12:10:58.813Z,5936.00
2018-08-18T12:11:58.853Z,5836.00
2018-08-18T12:12:59.068Z,5620.00
2018-08-18T12:13:59.292Z,5020.00
2018-08-18T12:14:59.472Z,5828.00
2018-08-18T12:15:59.643Z,5812.00
2018-08-18T12:16:59.811Z,5712.00
2018-08-18T12:18:00.004Z,5740.00
2018-08-18T12:19:00.184Z,3476.00
2018-08-18T12:20:00.363Z,3508.00
2018-08-18T12:21:00.556Z,3672.00
2018-08-18T12:22:00.777Z,5796.00
2018-08-18T12:23:00.931Z,5764.00
2018-08-18T12:24:01.084Z,5772.00
2018-08-18T12:25:01.313Z,4336.00
2018-08-18T12:26:01.566Z,5624.00
2018-08-18T12:27:01.762Z,5104.00
2018-08-18T12:28:01.976Z,3832.00
2018-08-18T12:30:02.351Z,5804.00
2018-08-18T12:31:02.526Z,3720.00
2018-08-18T12:32:02.716Z,4772.00